sensor_id;sensor_type;location;lat;lon;timestamp;P1;durP1;ratioP1;P2;durP2;ratioP2
16600;SDS011;34891;48.164;11.572;2022-09-24T00:03:17;14.55;;;5.07;;
16600;SDS011;34891;48.164;11.572;2022-09-24T00:08:23;23.73;;;6.82;;
16600;SDS011;34891;48.164;11.572;2022-09-24T00:13:26;25.73;;;8.37;;
16600;SDS011;34891;48.164;11.572;2022-09-24T00:18:33;35.97;;;10.98;;
16600;SDS011;34891;48.164;11.572;2022-09-24T00:23:39;17.70;;;6.80;;
16600;SDS011;34891;48.164;11.572;2022-09-24T00:28:43;20.00;;;8.00;;
16600;SDS011;34891;48.164;11.572;2022-09-24T00:33:49;27.42;;;9.30;;
16600;SDS011;34891;48.164;11.572;2022-09-24T00:39:01;12.65;;;5.68;;
16600;SDS011;34891;48.164;11.572;2022-09-24T00:49:34;24.20;;;7.32;;
16600;SDS011;34891;48.164;11.572;2022-09-24T00:54:38;23.10;;;7.10;;
16600;SDS011;34891;48.164;11.572;2022-09-24T00:59:44;21.55;;;6.90;;
16600;SDS011;34891;48.164;11.572;2022-09-24T01:04:50;31.38;;;9.07;;
16600;SDS011;34891;48.164;11.572;2022-09-24T01:10:05;29.08;;;7.90;;
16600;SDS011;34891;48.164;11.572;2022-09-24T01:15:13;21.27;;;7.05;;
16600;SDS011;34891;48.164;11.572;2022-09-24T01:25:49;10.70;;;5.38;;
16600;SDS011;34891;48.164;11.572;2022-09-24T01:31:11;5.97;;;2.65;;
16600;SDS011;34891;48.164;11.572;2022-09-24T01:36:19;9.23;;;5.05;;
16600;SDS011;34891;48.164;11.572;2022-09-24T01:41:27;11.10;;;4.50;;
16600;SDS011;34891;48.164;11.572;2022-09-24T01:46:41;6.82;;;3.88;;
16600;SDS011;34891;48.164;11.572;2022-09-24T01:52:08;7.65;;;3.55;;
16600;SDS011;34891;48.164;11.572;2022-09-24T01:57:18;7.07;;;4.32;;
16600;SDS011;34891;48.164;11.572;2022-09-24T02:02:32;11.35;;;4.28;;
16600;SDS011;34891;48.164;11.572;2022-09-24T02:07:44;6.80;;;3.50;;
16600;SDS011;34891;48.164;11.572;2022-09-24T02:12:51;7.60;;;3.60;;
16600;SDS011;34891;48.164;11.572;2022-09-24T02:18:01;6.55;;;3.40;;
16600;SDS011;34891;48.164;11.572;2022-09-24T02:28:26;6.72;;;3.63;;
16600;SDS011;34891;48.164;11.572;2022-09-24T02:33:32;9.88;;;3.60;;
16600;SDS011;34891;48.164;11.572;2022-09-24T02:38:54;10.32;;;3.45;;
16600;SDS011;34891;48.164;11.572;2022-09-24T02:44:01;8.07;;;3.63;;
16600;SDS011;34891;48.164;11.572;2022-09-24T02:49:09;7.30;;;3.80;;
16600;SDS011;34891;48.164;11.572;2022-09-24T02:54:15;6.20;;;3.65;;
16600;SDS011;34891;48.164;11.572;2022-09-24T02:59:32;6.00;;;2.30;;
16600;SDS011;34891;48.164;11.572;2022-09-24T03:04:39;6.95;;;3.38;;
16600;SDS011;34891;48.164;11.572;2022-09-24T03:09:45;9.48;;;3.60;;
16600;SDS011;34891;48.164;11.572;2022-09-24T03:14:51;7.70;;;3.40;;
16600;SDS011;34891;48.164;11.572;2022-09-24T03:25:25;7.95;;;3.80;;
16600;SDS011;34891;48.164;11.572;2022-09-24T03:30:43;6.47;;;3.65;;
16600;SDS011;34891;48.164;11.572;2022-09-24T03:36:10;7.53;;;3.83;;
16600;SDS011;34891;48.164;11.572;2022-09-24T03:41:19;7.60;;;3.70;;
16600;SDS011;34891;48.164;11.572;2022-09-24T03:46:31;6.32;;;3.72;;
16600;SDS011;34891;48.164;11.572;2022-09-24T03:51:38;6.43;;;3.53;;
16600;SDS011;34891;48.164;11.572;2022-09-24T03:56:46;6.70;;;3.78;;
16600;SDS011;34891;48.164;11.572;2022-09-24T04:01:51;8.30;;;3.70;;
16600;SDS011;34891;48.164;11.572;2022-09-24T04:06:56;8.50;;;3.47;;
16600;SDS011;34891;48.164;11.572;2022-09-24T04:12:05;7.82;;;3.28;;
16600;SDS011;34891;48.164;11.572;2022-09-24T04:17:11;7.15;;;3.47;;
16600;SDS011;34891;48.164;11.572;2022-09-24T04:22:15;7.07;;;3.60;;
16600;SDS011;34891;48.164;11.572;2022-09-24T04:27:25;6.35;;;3.50;;
16600;SDS011;34891;48.164;11.572;2022-09-24T04:32:30;8.02;;;3.40;;
16600;SDS011;34891;48.164;11.572;2022-09-24T04:37:34;5.30;;;3.08;;
16600;SDS011;34891;48.164;11.572;2022-09-24T04:42:41;6.45;;;3.35;;
16600;SDS011;34891;48.164;11.572;2022-09-24T04:47:49;7.00;;;2.90;;
16600;SDS011;34891;48.164;11.572;2022-09-24T04:53:05;6.07;;;2.60;;
16600;SDS011;34891;48.164;11.572;2022-09-24T04:58:15;5.35;;;3.30;;
16600;SDS011;34891;48.164;11.572;2022-09-24T05:03:19;7.95;;;3.90;;
16600;SDS011;34891;48.164;11.572;2022-09-24T05:08:23;6.93;;;3.55;;
16600;SDS011;34891;48.164;11.572;2022-09-24T05:13:58;9.43;;;3.50;;
16600;SDS011;34891;48.164;11.572;2022-09-24T05:19:05;6.10;;;3.10;;
16600;SDS011;34891;48.164;11.572;2022-09-24T05:24:11;4.93;;;3.13;;
16600;SDS011;34891;48.164;11.572;2022-09-24T05:29:16;7.60;;;2.95;;
16600;SDS011;34891;48.164;11.572;2022-09-24T05:34:35;5.88;;;2.53;;
16600;SDS011;34891;48.164;11.572;2022-09-24T05:39:44;5.28;;;3.25;;
16600;SDS011;34891;48.164;11.572;2022-09-24T05:44:51;7.13;;;2.78;;
16600;SDS011;34891;48.164;11.572;2022-09-24T05:49:58;6.78;;;3.35;;
16600;SDS011;34891;48.164;11.572;2022-09-24T05:55:02;7.45;;;3.10;;
16600;SDS011;34891;48.164;11.572;2022-09-24T06:00:12;4.85;;;3.00;;
16600;SDS011;34891;48.164;11.572;2022-09-24T06:05:18;7.10;;;3.13;;
16600;SDS011;34891;48.164;11.572;2022-09-24T06:10:22;3.35;;;2.03;;
16600;SDS011;34891;48.164;11.572;2022-09-24T06:15:32;7.38;;;3.10;;
16600;SDS011;34891;48.164;11.572;2022-09-24T06:20:39;4.38;;;2.08;;
16600;SDS011;34891;48.164;11.572;2022-09-24T06:25:43;2.75;;;1.60;;
16600;SDS011;34891;48.164;11.572;2022-09-24T06:30:57;6.03;;;3.05;;
16600;SDS011;34891;48.164;11.572;2022-09-24T06:36:05;5.07;;;2.67;;
16600;SDS011;34891;48.164;11.572;2022-09-24T06:41:10;5.57;;;3.10;;
16600;SDS011;34891;48.164;11.572;2022-09-24T06:46:18;8.40;;;3.60;;
16600;SDS011;34891;48.164;11.572;2022-09-24T06:51:27;6.50;;;3.40;;
16600;SDS011;34891;48.164;11.572;2022-09-24T06:56:36;7.53;;;3.40;;
16600;SDS011;34891;48.164;11.572;2022-09-24T07:01:56;7.15;;;3.47;;
16600;SDS011;34891;48.164;11.572;2022-09-24T07:07:03;4.97;;;3.40;;
16600;SDS011;34891;48.164;11.572;2022-09-24T07:12:25;8.38;;;3.35;;
16600;SDS011;34891;48.164;11.572;2022-09-24T07:17:44;5.05;;;2.78;;
16600;SDS011;34891;48.164;11.572;2022-09-24T07:23:11;7.40;;;3.50;;
16600;SDS011;34891;48.164;11.572;2022-09-24T07:28:15;4.95;;;2.75;;
16600;SDS011;34891;48.164;11.572;2022-09-24T07:33:29;6.97;;;3.33;;
16600;SDS011;34891;48.164;11.572;2022-09-24T07:38:37;5.65;;;2.80;;
16600;SDS011;34891;48.164;11.572;2022-09-24T07:43:43;5.28;;;2.78;;
16600;SDS011;34891;48.164;11.572;2022-09-24T07:48:48;5.18;;;2.92;;
16600;SDS011;34891;48.164;11.572;2022-09-24T07:54:02;3.65;;;2.63;;
16600;SDS011;34891;48.164;11.572;2022-09-24T07:59:09;8.43;;;3.00;;
16600;SDS011;34891;48.164;11.572;2022-09-24T08:04:24;5.28;;;2.50;;
16600;SDS011;34891;48.164;11.572;2022-09-24T08:09:30;7.07;;;3.20;;
16600;SDS011;34891;48.164;11.572;2022-09-24T08:14:34;6.13;;;3.17;;
16600;SDS011;34891;48.164;11.572;2022-09-24T08:19:38;7.15;;;3.80;;
16600;SDS011;34891;48.164;11.572;2022-09-24T08:24:45;5.97;;;3.15;;
16600;SDS011;34891;48.164;11.572;2022-09-24T08:29:54;10.50;;;3.67;;
16600;SDS011;34891;48.164;11.572;2022-09-24T08:35:06;7.28;;;4.07;;
16600;SDS011;34891;48.164;11.572;2022-09-24T08:40:14;10.68;;;4.50;;
16600;SDS011;34891;48.164;11.572;2022-09-24T08:45:20;8.68;;;4.22;;
16600;SDS011;34891;48.164;11.572;2022-09-24T08:50:46;10.48;;;4.35;;
16600;SDS011;34891;48.164;11.572;2022-09-24T08:56:00;9.25;;;4.30;;
16600;SDS011;34891;48.164;11.572;2022-09-24T09:01:06;11.85;;;4.40;;
16600;SDS011;34891;48.164;11.572;2022-09-24T09:06:26;10.05;;;4.78;;
16600;SDS011;34891;48.164;11.572;2022-09-24T09:11:39;7.83;;;3.97;;
16600;SDS011;34891;48.164;11.572;2022-09-24T09:16:47;7.85;;;3.63;;
16600;SDS011;34891;48.164;11.572;2022-09-24T09:22:15;5.97;;;3.67;;
16600;SDS011;34891;48.164;11.572;2022-09-24T09:32:40;6.40;;;3.95;;
16600;SDS011;34891;48.164;11.572;2022-09-24T09:37:53;8.27;;;4.03;;
16600;SDS011;34891;48.164;11.572;2022-09-24T09:43:08;7.03;;;3.95;;
16600;SDS011;34891;48.164;11.572;2022-09-24T09:48:11;11.27;;;4.18;;
16600;SDS011;34891;48.164;11.572;2022-09-24T09:53:21;9.18;;;3.95;;
16600;SDS011;34891;48.164;11.572;2022-09-24T09:58:30;6.95;;;3.63;;
16600;SDS011;34891;48.164;11.572;2022-09-24T10:03:46;6.93;;;3.85;;
16600;SDS011;34891;48.164;11.572;2022-09-24T10:09:04;4.47;;;2.30;;
16600;SDS011;34891;48.164;11.572;2022-09-24T10:14:18;5.90;;;3.75;;
16600;SDS011;34891;48.164;11.572;2022-09-24T10:19:29;6.03;;;3.65;;
16600;SDS011;34891;48.164;11.572;2022-09-24T10:24:45;5.45;;;3.13;;
16600;SDS011;34891;48.164;11.572;2022-09-24T10:29:53;5.55;;;3.83;;
16600;SDS011;34891;48.164;11.572;2022-09-24T10:35:21;7.57;;;4.05;;
16600;SDS011;34891;48.164;11.572;2022-09-24T10:40:37;6.43;;;4.00;;
16600;SDS011;34891;48.164;11.572;2022-09-24T10:45:59;9.55;;;4.25;;
16600;SDS011;34891;48.164;11.572;2022-09-24T10:51:09;7.15;;;4.28;;
16600;SDS011;34891;48.164;11.572;2022-09-24T10:56:28;9.70;;;4.97;;
16600;SDS011;34891;48.164;11.572;2022-09-24T11:01:37;10.63;;;4.35;;
16600;SDS011;34891;48.164;11.572;2022-09-24T11:06:51;5.28;;;3.20;;
16600;SDS011;34891;48.164;11.572;2022-09-24T11:12:02;8.45;;;4.28;;
16600;SDS011;34891;48.164;11.572;2022-09-24T11:22:53;6.78;;;3.55;;
16600;SDS011;34891;48.164;11.572;2022-09-24T11:28:24;7.13;;;3.42;;
16600;SDS011;34891;48.164;11.572;2022-09-24T11:33:37;5.70;;;3.63;;
16600;SDS011;34891;48.164;11.572;2022-09-24T11:38:55;6.40;;;4.20;;
16600;SDS011;34891;48.164;11.572;2022-09-24T11:44:18;11.93;;;4.93;;
16600;SDS011;34891;48.164;11.572;2022-09-24T11:49:30;9.98;;;5.05;;
16600;SDS011;34891;48.164;11.572;2022-09-24T11:54:41;10.73;;;5.47;;
16600;SDS011;34891;48.164;11.572;2022-09-24T11:59:49;8.80;;;5.10;;
16600;SDS011;34891;48.164;11.572;2022-09-24T12:04:58;9.20;;;4.82;;
16600;SDS011;34891;48.164;11.572;2022-09-24T12:10:12;9.98;;;5.35;;
16600;SDS011;34891;48.164;11.572;2022-09-24T12:15:45;9.98;;;5.03;;
16600;SDS011;34891;48.164;11.572;2022-09-24T12:20:53;8.13;;;5.10;;
16600;SDS011;34891;48.164;11.572;2022-09-24T12:26:02;9.25;;;4.78;;
16600;SDS011;34891;48.164;11.572;2022-09-24T12:31:11;7.78;;;4.68;;
16600;SDS011;34891;48.164;11.572;2022-09-24T12:36:37;9.23;;;5.20;;
16600;SDS011;34891;48.164;11.572;2022-09-24T12:41:43;7.93;;;4.88;;
16600;SDS011;34891;48.164;11.572;2022-09-24T12:47:02;8.15;;;4.78;;
16600;SDS011;34891;48.164;11.572;2022-09-24T12:52:15;8.27;;;4.60;;
16600;SDS011;34891;48.164;11.572;2022-09-24T12:57:22;9.18;;;5.00;;
16600;SDS011;34891;48.164;11.572;2022-09-24T13:02:42;8.75;;;5.22;;
16600;SDS011;34891;48.164;11.572;2022-09-24T13:08:04;6.65;;;4.57;;
16600;SDS011;34891;48.164;11.572;2022-09-24T13:13:27;8.05;;;4.82;;
16600;SDS011;34891;48.164;11.572;2022-09-24T13:18:36;8.95;;;5.30;;
16600;SDS011;34891;48.164;11.572;2022-09-24T13:23:43;7.05;;;4.40;;
16600;SDS011;34891;48.164;11.572;2022-09-24T13:28:51;6.70;;;4.60;;
16600;SDS011;34891;48.164;11.572;2022-09-24T13:39:39;7.03;;;4.60;;
16600;SDS011;34891;48.164;11.572;2022-09-24T13:44:50;9.70;;;4.75;;
16600;SDS011;34891;48.164;11.572;2022-09-24T13:50:00;8.48;;;4.70;;
16600;SDS011;34891;48.164;11.572;2022-09-24T13:55:15;10.25;;;4.55;;
16600;SDS011;34891;48.164;11.572;2022-09-24T14:11:48;7.93;;;5.03;;
16600;SDS011;34891;48.164;11.572;2022-09-24T14:17:04;8.32;;;5.22;;
16600;SDS011;34891;48.164;11.572;2022-09-24T14:22:20;9.07;;;5.38;;
16600;SDS011;34891;48.164;11.572;2022-09-24T14:27:33;9.25;;;5.00;;
16600;SDS011;34891;48.164;11.572;2022-09-24T14:32:42;10.23;;;5.03;;
16600;SDS011;34891;48.164;11.572;2022-09-24T14:37:51;9.05;;;4.85;;
16600;SDS011;34891;48.164;11.572;2022-09-24T14:43:03;7.85;;;4.53;;
16600;SDS011;34891;48.164;11.572;2022-09-24T14:53:28;7.43;;;4.60;;
16600;SDS011;34891;48.164;11.572;2022-09-24T14:58:35;7.15;;;4.93;;
16600;SDS011;34891;48.164;11.572;2022-09-24T15:03:40;10.57;;;4.80;;
16600;SDS011;34891;48.164;11.572;2022-09-24T15:08:51;9.43;;;5.38;;
16600;SDS011;34891;48.164;11.572;2022-09-24T15:14:00;8.95;;;5.25;;
16600;SDS011;34891;48.164;11.572;2022-09-24T15:19:15;9.90;;;5.20;;
16600;SDS011;34891;48.164;11.572;2022-09-24T15:24:22;9.85;;;5.22;;
16600;SDS011;34891;48.164;11.572;2022-09-24T15:29:33;10.93;;;6.03;;
16600;SDS011;34891;48.164;11.572;2022-09-24T15:34:39;11.45;;;6.63;;
16600;SDS011;34891;48.164;11.572;2022-09-24T15:39:45;13.27;;;6.18;;
16600;SDS011;34891;48.164;11.572;2022-09-24T15:44:59;12.30;;;6.38;;
16600;SDS011;34891;48.164;11.572;2022-09-24T15:50:04;12.63;;;7.10;;
16600;SDS011;34891;48.164;11.572;2022-09-24T15:55:13;11.02;;;7.00;;
16600;SDS011;34891;48.164;11.572;2022-09-24T16:00:23;12.88;;;7.80;;
16600;SDS011;34891;48.164;11.572;2022-09-24T16:05:29;14.15;;;8.00;;
16600;SDS011;34891;48.164;11.572;2022-09-24T16:10:33;17.48;;;9.98;;
16600;SDS011;34891;48.164;11.572;2022-09-24T16:15:45;20.35;;;10.43;;
16600;SDS011;34891;48.164;11.572;2022-09-24T16:20:54;15.73;;;7.93;;
16600;SDS011;34891;48.164;11.572;2022-09-24T16:26:00;15.60;;;8.68;;
16600;SDS011;34891;48.164;11.572;2022-09-24T16:31:06;16.45;;;9.38;;
16600;SDS011;34891;48.164;11.572;2022-09-24T16:36:11;18.60;;;9.45;;
16600;SDS011;34891;48.164;11.572;2022-09-24T16:41:20;20.95;;;9.52;;
16600;SDS011;34891;48.164;11.572;2022-09-24T16:46:30;18.08;;;9.43;;
16600;SDS011;34891;48.164;11.572;2022-09-24T16:51:38;16.25;;;8.50;;
16600;SDS011;34891;48.164;11.572;2022-09-24T16:56:47;19.95;;;9.73;;
16600;SDS011;34891;48.164;11.572;2022-09-24T17:01:59;18.30;;;9.90;;
16600;SDS011;34891;48.164;11.572;2022-09-24T17:07:07;20.60;;;10.43;;
16600;SDS011;34891;48.164;11.572;2022-09-24T17:12:11;28.05;;;14.70;;
16600;SDS011;34891;48.164;11.572;2022-09-24T17:17:26;18.52;;;10.10;;
16600;SDS011;34891;48.164;11.572;2022-09-24T17:22:32;17.98;;;9.85;;
16600;SDS011;34891;48.164;11.572;2022-09-24T17:27:41;28.58;;;15.38;;
16600;SDS011;34891;48.164;11.572;2022-09-24T17:32:48;22.83;;;11.45;;
16600;SDS011;34891;48.164;11.572;2022-09-24T17:37:54;21.45;;;11.18;;
16600;SDS011;34891;48.164;11.572;2022-09-24T17:43:27;21.90;;;11.05;;
16600;SDS011;34891;48.164;11.572;2022-09-24T17:48:34;25.52;;;12.02;;
16600;SDS011;34891;48.164;11.572;2022-09-24T17:53:41;22.75;;;11.88;;
16600;SDS011;34891;48.164;11.572;2022-09-24T17:58:46;22.63;;;11.48;;
16600;SDS011;34891;48.164;11.572;2022-09-24T18:03:54;22.48;;;10.45;;
16600;SDS011;34891;48.164;11.572;2022-09-24T18:08:58;20.83;;;10.77;;
16600;SDS011;34891;48.164;11.572;2022-09-24T18:14:03;27.33;;;11.23;;
16600;SDS011;34891;48.164;11.572;2022-09-24T18:19:11;27.90;;;12.98;;
16600;SDS011;34891;48.164;11.572;2022-09-24T18:24:16;22.08;;;11.80;;
16600;SDS011;34891;48.164;11.572;2022-09-24T18:29:24;30.20;;;14.38;;
16600;SDS011;34891;48.164;11.572;2022-09-24T18:34:36;24.17;;;12.70;;
16600;SDS011;34891;48.164;11.572;2022-09-24T18:39:44;27.95;;;14.00;;
16600;SDS011;34891;48.164;11.572;2022-09-24T18:44:52;27.77;;;14.15;;
16600;SDS011;34891;48.164;11.572;2022-09-24T18:50:01;26.08;;;13.55;;
16600;SDS011;34891;48.164;11.572;2022-09-24T18:55:06;26.75;;;13.75;;
16600;SDS011;34891;48.164;11.572;2022-09-24T19:00:11;28.70;;;15.48;;
16600;SDS011;34891;48.164;11.572;2022-09-24T19:05:40;27.77;;;14.63;;
16600;SDS011;34891;48.164;11.572;2022-09-24T19:10:49;28.70;;;15.90;;
16600;SDS011;34891;48.164;11.572;2022-09-24T19:15:54;25.15;;;11.32;;
16600;SDS011;34891;48.164;11.572;2022-09-24T19:21:00;28.02;;;14.15;;
16600;SDS011;34891;48.164;11.572;2022-09-24T19:26:07;28.80;;;16.10;;
16600;SDS011;34891;48.164;11.572;2022-09-24T19:31:11;29.63;;;12.82;;
16600;SDS011;34891;48.164;11.572;2022-09-24T19:36:23;29.02;;;14.48;;
16600;SDS011;34891;48.164;11.572;2022-09-24T19:41:28;26.38;;;12.98;;
16600;SDS011;34891;48.164;11.572;2022-09-24T19:51:47;34.10;;;16.03;;
16600;SDS011;34891;48.164;11.572;2022-09-24T19:56:53;29.90;;;15.65;;
16600;SDS011;34891;48.164;11.572;2022-09-24T20:01:57;32.65;;;16.67;;
16600;SDS011;34891;48.164;11.572;2022-09-24T20:07:09;29.00;;;14.25;;
16600;SDS011;34891;48.164;11.572;2022-09-24T20:17:23;33.38;;;17.23;;
16600;SDS011;34891;48.164;11.572;2022-09-24T20:22:30;28.23;;;15.30;;
16600;SDS011;34891;48.164;11.572;2022-09-24T20:27:35;30.55;;;15.07;;
16600;SDS011;34891;48.164;11.572;2022-09-24T20:32:57;32.60;;;16.85;;
16600;SDS011;34891;48.164;11.572;2022-09-24T20:38:03;33.63;;;16.35;;
16600;SDS011;34891;48.164;11.572;2022-09-24T20:43:07;34.67;;;17.20;;
16600;SDS011;34891;48.164;11.572;2022-09-24T20:48:13;34.70;;;18.00;;
16600;SDS011;34891;48.164;11.572;2022-09-24T20:53:25;34.25;;;16.42;;
16600;SDS011;34891;48.164;11.572;2022-09-24T20:58:30;34.15;;;15.13;;
16600;SDS011;34891;48.164;11.572;2022-09-24T21:03:36;39.90;;;19.98;;
16600;SDS011;34891;48.164;11.572;2022-09-24T21:08:47;42.60;;;19.13;;
16600;SDS011;34891;48.164;11.572;2022-09-24T21:13:51;39.65;;;17.83;;
16600;SDS011;34891;48.164;11.572;2022-09-24T21:18:57;32.17;;;15.38;;
16600;SDS011;34891;48.164;11.572;2022-09-24T21:24:04;27.38;;;14.50;;
16600;SDS011;34891;48.164;11.572;2022-09-24T21:29:10;20.98;;;10.48;;
16600;SDS011;34891;48.164;11.572;2022-09-24T21:34:15;27.25;;;13.82;;
16600;SDS011;34891;48.164;11.572;2022-09-24T21:39:23;19.88;;;10.90;;
16600;SDS011;34891;48.164;11.572;2022-09-24T21:44:28;18.55;;;9.55;;
16600;SDS011;34891;48.164;11.572;2022-09-24T21:49:35;45.90;;;22.30;;
16600;SDS011;34891;48.164;11.572;2022-09-24T21:54:45;18.33;;;9.38;;
16600;SDS011;34891;48.164;11.572;2022-09-24T21:59:54;20.67;;;10.43;;
16600;SDS011;34891;48.164;11.572;2022-09-24T22:05:19;17.33;;;9.38;;
16600;SDS011;34891;48.164;11.572;2022-09-24T22:10:26;15.10;;;7.60;;
16600;SDS011;34891;48.164;11.572;2022-09-24T22:15:30;12.80;;;7.22;;
16600;SDS011;34891;48.164;11.572;2022-09-24T22:20:39;76.35;;;35.33;;
16600;SDS011;34891;48.164;11.572;2022-09-24T22:25:46;19.48;;;9.75;;
16600;SDS011;34891;48.164;11.572;2022-09-24T22:31:05;16.67;;;8.00;;
16600;SDS011;34891;48.164;11.572;2022-09-24T22:36:13;20.00;;;10.10;;
16600;SDS011;34891;48.164;11.572;2022-09-24T22:41:23;18.70;;;9.95;;
16600;SDS011;34891;48.164;11.572;2022-09-24T22:46:32;20.60;;;9.88;;
16600;SDS011;34891;48.164;11.572;2022-09-24T22:51:42;23.60;;;11.00;;
16600;SDS011;34891;48.164;11.572;2022-09-24T22:56:49;26.85;;;12.23;;
16600;SDS011;34891;48.164;11.572;2022-09-24T23:01:52;26.10;;;11.60;;
16600;SDS011;34891;48.164;11.572;2022-09-24T23:07:07;23.73;;;11.35;;
16600;SDS011;34891;48.164;11.572;2022-09-24T23:12:12;27.17;;;11.82;;
16600;SDS011;34891;48.164;11.572;2022-09-24T23:17:18;30.08;;;12.63;;
16600;SDS011;34891;48.164;11.572;2022-09-24T23:22:24;34.92;;;14.55;;
16600;SDS011;34891;48.164;11.572;2022-09-24T23:27:35;29.98;;;12.93;;
16600;SDS011;34891;48.164;11.572;2022-09-24T23:32:39;32.83;;;13.80;;
16600;SDS011;34891;48.164;11.572;2022-09-24T23:37:42;30.15;;;13.05;;
16600;SDS011;34891;48.164;11.572;2022-09-24T23:43:03;32.22;;;13.95;;
16600;SDS011;34891;48.164;11.572;2022-09-24T23:53:21;26.73;;;12.98;;
16600;SDS011;34891;48.164;11.572;2022-09-24T23:58:27;29.95;;;13.25;;
